createdAt,value
2018-10-18T00:00:06.213Z,8.79
2018-10-18T00:02:35.016Z,8.75
2018-10-18T00:05:03.566Z,8.78
2018-10-18T00:07:32.214Z,8.75
2018-10-18T00:10:00.952Z,8.70
2018-10-18T00:12:29.645Z,8.69
2018-10-18T00:14:58.466Z,8.66
2018-10-18T00:17:32.317Z,8.58
2018-10-18T00:20:00.946Z,8.53
2018-10-18T00:22:29.659Z,8.50
2018-10-18T00:24:58.336Z,8.42
2018-10-18T00:27:26.895Z,8.41
2018-10-18T00:29:55.630Z,8.45
2018-10-18T00:32:25.256Z,8.43
2018-10-18T00:34:53.789Z,8.28
2018-10-18T00:37:22.492Z,8.16
2018-10-18T00:39:51.506Z,8.08
2018-10-18T00:42:21.254Z,8.11
2018-10-18T00:44:49.910Z,8.22
2018-10-18T00:47:18.492Z,8.30
2018-10-18T00:49:47.195Z,8.32
2018-10-18T00:52:17.130Z,8.34
2018-10-18T00:54:45.762Z,8.24
2018-10-18T00:57:14.512Z,8.06
2018-10-18T00:59:43.073Z,8.01
2018-10-18T01:02:11.714Z,8.03
2018-10-18T01:04:40.334Z,8.05
2018-10-18T01:07:08.973Z,8.09
2018-10-18T01:09:37.514Z,8.11
2018-10-18T01:12:06.262Z,8.14
2018-10-18T01:14:34.911Z,8.18
2018-10-18T01:17:04.338Z,8.32
2018-10-18T01:19:35.376Z,8.36
2018-10-18T01:22:05.381Z,8.35
2018-10-18T01:24:34.502Z,8.28
2018-10-18T01:27:04.430Z,8.24
2018-10-18T01:29:33.057Z,8.19
2018-10-18T01:32:01.785Z,8.16
2018-10-18T01:34:31.381Z,8.12
2018-10-18T01:36:59.983Z,8.12
2018-10-18T01:39:30.480Z,8.11
2018-10-18T01:42:00.054Z,7.98
2018-10-18T01:44:28.668Z,7.95
2018-10-18T01:46:57.200Z,7.90
2018-10-18T01:49:25.794Z,7.87
2018-10-18T01:51:55.090Z,7.80
2018-10-18T01:54:23.669Z,7.83
2018-10-18T01:56:52.110Z,7.86
2018-10-18T01:59:20.698Z,7.79
2018-10-18T02:01:50.273Z,7.75
2018-10-18T02:04:19.773Z,7.72
2018-10-18T02:06:48.523Z,7.71
2018-10-18T02:09:17.257Z,7.72
2018-10-18T02:11:45.874Z,7.75
2018-10-18T02:14:14.469Z,7.77
2018-10-18T02:16:43.011Z,7.76
2018-10-18T02:19:12.200Z,7.75
2018-10-18T02:21:42.822Z,7.74
2018-10-18T02:24:11.538Z,7.73
2018-10-18T02:26:40.185Z,7.69
2018-10-18T02:29:08.698Z,7.72
2018-10-18T02:31:37.347Z,7.81
2018-10-18T02:34:05.897Z,7.81
2018-10-18T02:36:34.582Z,7.83
2018-10-18T02:39:04.461Z,7.75
2018-10-18T02:41:32.955Z,7.67
2018-10-18T02:44:01.458Z,7.54
2018-10-18T02:46:30.146Z,7.49
2018-10-18T02:48:58.899Z,7.47
2018-10-18T02:51:27.476Z,7.38
2018-10-18T02:53:56.039Z,7.32
2018-10-18T02:56:24.805Z,7.17
2018-10-18T02:58:53.382Z,7.13
2018-10-18T03:01:21.913Z,7.06
2018-10-18T03:03:50.616Z,7.06
2018-10-18T03:06:19.299Z,6.93
2018-10-18T03:08:48.886Z,6.89
2018-10-18T03:11:17.426Z,6.84
2018-10-18T03:13:45.955Z,6.78
2018-10-18T03:16:14.791Z,6.83
2018-10-18T03:18:43.287Z,6.80
2018-10-18T03:21:12.885Z,6.77
2018-10-18T03:23:41.722Z,6.73
2018-10-18T03:26:11.327Z,6.81
2018-10-18T03:28:40.018Z,6.81
2018-10-18T03:31:08.488Z,6.88
2018-10-18T03:33:37.050Z,7.01
2018-10-18T03:36:06.147Z,7.00
2018-10-18T03:38:34.754Z,7.03
2018-10-18T03:41:03.523Z,7.01
2018-10-18T03:43:32.294Z,6.98
2018-10-18T03:46:00.937Z,7.01
2018-10-18T03:48:30.255Z,6.95
2018-10-18T03:50:59.814Z,6.98
2018-10-18T03:53:28.786Z,7.03
2018-10-18T03:55:57.390Z,7.11
2018-10-18T03:58:26.268Z,7.25
2018-10-18T04:00:54.860Z,7.18
2018-10-18T04:03:23.550Z,7.19
2018-10-18T04:05:52.227Z,7.24
2018-10-18T04:08:20.839Z,7.25
2018-10-18T04:10:49.493Z,7.37
2018-10-18T04:13:18.034Z,7.44
2018-10-18T04:15:46.777Z,7.44
2018-10-18T04:18:15.456Z,7.57
2018-10-18T04:20:44.141Z,7.61
2018-10-18T04:23:12.809Z,7.66
2018-10-18T04:25:41.493Z,7.55
2018-10-18T04:28:10.226Z,7.49
2018-10-18T04:30:39.010Z,7.51
2018-10-18T04:33:07.539Z,7.38
2018-10-18T04:35:36.107Z,7.26
2018-10-18T04:38:04.728Z,7.35
2018-10-18T04:40:33.250Z,7.39
2018-10-18T04:43:01.945Z,7.40
2018-10-18T04:45:31.447Z,7.30
2018-10-18T04:48:00.146Z,7.23
2018-10-18T04:50:28.549Z,7.20
2018-10-18T04:52:57.407Z,7.34
2018-10-18T04:55:26.030Z,7.38
2018-10-18T04:57:54.625Z,7.29
2018-10-18T05:00:23.198Z,7.25
2018-10-18T05:02:52.049Z,7.33
2018-10-18T05:05:31.838Z,7.35
2018-10-18T05:08:00.416Z,7.40
2018-10-18T05:10:28.939Z,7.42
2018-10-18T05:12:57.610Z,7.48
2018-10-18T05:15:26.318Z,7.31
2018-10-18T05:17:55.030Z,7.21
2018-10-18T05:20:23.706Z,7.15
2018-10-18T05:22:52.242Z,7.19
2018-10-18T05:25:20.774Z,7.36
2018-10-18T05:27:49.288Z,7.41
2018-10-18T05:30:17.852Z,7.41
2018-10-18T05:32:46.905Z,7.34
2018-10-18T05:35:15.392Z,7.32
2018-10-18T05:37:44.114Z,7.24
2018-10-18T05:40:13.665Z,7.14
2018-10-18T05:42:42.163Z,7.02
2018-10-18T05:45:10.722Z,6.95
2018-10-18T05:47:39.613Z,6.85
2018-10-18T05:50:08.847Z,6.87
2018-10-18T05:52:37.506Z,6.83
2018-10-18T05:55:07.384Z,6.85
2018-10-18T05:57:35.930Z,6.87
2018-10-18T06:00:07.040Z,6.87
2018-10-18T06:02:35.634Z,6.94
2018-10-18T06:05:04.498Z,6.97
2018-10-18T06:07:32.983Z,6.99
2018-10-18T06:10:01.767Z,7.02
2018-10-18T06:12:30.170Z,7.02
2018-10-18T06:14:58.841Z,7.02
2018-10-18T06:17:27.370Z,7.06
2018-10-18T06:19:55.945Z,7.09
2018-10-18T06:22:24.530Z,7.19
2018-10-18T06:24:55.085Z,7.30
2018-10-18T06:27:23.679Z,7.32
2018-10-18T06:29:52.228Z,7.30
2018-10-18T06:32:20.889Z,7.23
2018-10-18T06:34:49.567Z,7.20
2018-10-18T06:37:18.190Z,7.17
2018-10-18T06:39:46.775Z,7.20
2018-10-18T06:42:15.397Z,7.19
2018-10-18T06:44:43.955Z,7.14
2018-10-18T06:47:12.713Z,7.13
2018-10-18T06:49:42.432Z,7.13
2018-10-18T06:52:11.063Z,7.22
2018-10-18T06:54:40.555Z,7.16
2018-10-18T06:57:09.297Z,7.17
2018-10-18T06:59:38.611Z,7.19
2018-10-18T07:02:08.172Z,7.29
2018-10-18T07:04:36.912Z,7.55
2018-10-18T07:07:05.852Z,7.70
2018-10-18T07:09:34.467Z,7.75
2018-10-18T07:12:03.159Z,7.82
2018-10-18T07:14:32.742Z,7.90
2018-10-18T07:17:01.554Z,7.91
2018-10-18T07:19:30.105Z,7.87
2018-10-18T07:21:58.616Z,7.94
2018-10-18T07:24:27.490Z,7.94
2018-10-18T07:26:56.290Z,7.94
2018-10-18T07:29:25.870Z,7.98
2018-10-18T07:31:54.669Z,8.05
2018-10-18T07:34:23.242Z,8.18
2018-10-18T07:36:52.146Z,8.28
2018-10-18T07:39:20.793Z,8.40
2018-10-18T07:41:49.463Z,8.53
2018-10-18T07:44:18.046Z,8.56
2018-10-18T07:46:46.833Z,8.57
2018-10-18T07:49:15.435Z,8.77
2018-10-18T07:51:44.105Z,8.95
2018-10-18T07:54:12.921Z,8.88
2018-10-18T07:56:41.722Z,8.89
2018-10-18T07:59:10.388Z,8.95
2018-10-18T08:01:38.865Z,9.07
2018-10-18T08:04:07.401Z,9.20
2018-10-18T08:06:35.990Z,9.33
2018-10-18T08:09:06.833Z,9.52
2018-10-18T08:11:35.435Z,9.74
2018-10-18T08:14:04.174Z,9.97
2018-10-18T08:16:32.646Z,10.19
2018-10-18T08:19:01.731Z,10.45
2018-10-18T08:21:30.353Z,10.73
2018-10-18T08:23:59.111Z,10.93
2018-10-18T08:26:28.788Z,11.11
2018-10-18T08:28:57.341Z,11.34
2018-10-18T08:31:26.266Z,11.45
2018-10-18T08:33:54.827Z,11.56
2018-10-18T08:36:23.803Z,11.62
2018-10-18T08:38:52.499Z,11.73
2018-10-18T08:41:21.125Z,11.85
2018-10-18T08:43:49.894Z,12.07
2018-10-18T08:46:18.771Z,12.28
2018-10-18T08:48:49.377Z,12.45
2018-10-18T09:31:30.261Z,14.59
2018-10-18T09:34:00.279Z,14.61
2018-10-18T09:36:29.158Z,14.67
2018-10-18T09:38:57.890Z,14.77
2018-10-18T09:41:26.526Z,14.87
2018-10-18T09:44:02.530Z,15.06
2018-10-18T09:46:31.979Z,15.27
2018-10-18T09:49:00.904Z,15.33
2018-10-18T09:51:29.744Z,15.41
2018-10-18T09:53:58.942Z,15.46
2018-10-18T09:56:27.584Z,15.50
2018-10-18T09:58:56.213Z,15.58
2018-10-18T10:01:31.894Z,15.62
2018-10-18T10:04:02.455Z,15.67
2018-10-18T10:06:31.349Z,15.81
2018-10-18T10:09:00.110Z,15.91
2018-10-18T10:11:29.168Z,15.99
2018-10-18T10:13:57.806Z,16.09
2018-10-18T10:16:26.542Z,16.18
2018-10-18T10:18:55.430Z,16.32
2018-10-18T10:21:24.168Z,16.40
2018-10-18T10:23:52.702Z,16.50
2018-10-18T10:26:21.393Z,16.56
2018-10-18T10:28:50.153Z,16.61
2018-10-18T10:31:19.003Z,16.78
2018-10-18T10:33:48.041Z,16.80
2018-10-18T10:36:16.605Z,16.77
2018-10-18T10:38:45.139Z,16.90
2018-10-18T10:41:14.071Z,17.04
2018-10-18T10:43:42.657Z,17.23
2018-10-18T10:46:11.461Z,17.45
2018-10-18T10:48:39.932Z,17.44
2018-10-18T10:51:09.571Z,17.39
2018-10-18T10:53:38.371Z,17.52
2018-10-18T10:56:07.080Z,17.81
2018-10-18T10:58:35.849Z,17.83
2018-10-18T11:01:09.071Z,17.87
2018-10-18T11:03:38.644Z,17.93
2018-10-18T11:06:07.404Z,17.99
2018-10-18T11:08:36.123Z,18.24
2018-10-18T11:11:05.071Z,18.66
2018-10-18T11:13:33.790Z,19.14
2018-10-18T11:16:03.400Z,19.76
2018-10-18T11:18:33.314Z,20.43
2018-10-18T11:21:03.543Z,20.82
2018-10-18T11:23:33.771Z,21.23
2018-10-18T11:26:03.759Z,21.70
2018-10-18T11:28:32.365Z,22.10
2018-10-18T11:31:01.008Z,21.88
2018-10-18T11:33:29.638Z,21.97
2018-10-18T11:35:58.408Z,22.45
2018-10-18T11:38:30.917Z,23.31
2018-10-18T11:40:59.522Z,23.97
2018-10-18T11:43:28.252Z,24.42
2018-10-18T11:45:56.864Z,24.92
2018-10-18T11:48:25.552Z,24.93
2018-10-18T11:50:54.133Z,25.23
2018-10-18T11:53:22.777Z,24.77
2018-10-18T11:55:51.550Z,24.49
2018-10-18T11:58:20.125Z,24.91
2018-10-18T12:00:49.082Z,25.16
2018-10-18T12:03:17.770Z,25.70
2018-10-18T12:05:46.357Z,26.23
2018-10-18T12:08:15.050Z,26.70
2018-10-18T12:10:43.583Z,26.89
2018-10-18T12:13:12.339Z,27.26
2018-10-18T12:15:41.073Z,26.97
2018-10-18T12:18:10.295Z,27.32
2018-10-18T12:20:38.897Z,27.57
2018-10-18T12:23:07.480Z,27.64
2018-10-18T12:25:36.186Z,27.63
2018-10-18T12:28:04.859Z,27.36
2018-10-18T12:30:33.453Z,27.27
2018-10-18T12:33:02.102Z,27.30
2018-10-18T12:35:30.873Z,27.12
2018-10-18T12:37:59.939Z,27.20
2018-10-18T12:40:29.361Z,27.05
2018-10-18T12:42:59.022Z,27.33
2018-10-18T12:45:27.870Z,26.69
2018-10-18T12:47:56.677Z,26.82
2018-10-18T12:50:25.455Z,26.55
2018-10-18T12:52:55.053Z,26.27
2018-10-18T12:55:23.564Z,25.90
2018-10-18T12:57:52.217Z,25.85
2018-10-18T13:00:21.570Z,25.97
2018-10-18T13:02:50.238Z,26.20
2018-10-18T13:05:19.016Z,26.29
2018-10-18T13:07:47.813Z,26.27
2018-10-18T13:10:16.397Z,25.81
2018-10-18T13:12:47.379Z,25.70
2018-10-18T13:15:16.834Z,25.49
2018-10-18T13:17:46.583Z,25.48
2018-10-18T13:20:15.629Z,25.67
2018-10-18T13:22:44.292Z,25.76
2018-10-18T13:25:13.094Z,25.18
2018-10-18T13:27:42.025Z,24.17
2018-10-18T13:30:11.645Z,23.83
2018-10-18T13:32:40.868Z,23.80
2018-10-18T13:35:10.002Z,23.58
2018-10-18T13:37:38.785Z,23.29
2018-10-18T13:40:08.019Z,24.01
2018-10-18T13:42:36.762Z,24.90
2018-10-18T13:45:06.205Z,25.38
2018-10-18T13:47:35.203Z,25.85
2018-10-18T13:50:05.275Z,26.38
2018-10-18T13:52:33.929Z,26.24
2018-10-18T13:55:03.545Z,26.10
2018-10-18T13:57:32.332Z,25.86
2018-10-18T14:00:25.585Z,25.22
2018-10-18T14:02:55.130Z,24.20
2018-10-18T14:05:25.011Z,24.54
2018-10-18T14:07:54.561Z,24.69
2018-10-18T14:10:23.294Z,24.83
2018-10-18T14:12:52.542Z,25.06
2018-10-18T14:15:21.272Z,24.98
2018-10-18T14:17:50.022Z,25.13
2018-10-18T14:20:18.906Z,24.83
2018-10-18T14:22:47.551Z,24.65
2018-10-18T14:25:16.269Z,24.75
2018-10-18T14:27:45.008Z,24.60
2018-10-18T14:30:14.059Z,24.61
2018-10-18T14:32:43.601Z,24.10
2018-10-18T14:35:13.216Z,23.78
2018-10-18T14:37:41.856Z,23.68
2018-10-18T14:40:11.854Z,23.71
2018-10-18T14:42:40.476Z,24.01
2018-10-18T14:45:09.843Z,24.14
2018-10-18T14:47:38.443Z,24.06
2018-10-18T14:50:09.764Z,24.03
2018-10-18T14:52:38.556Z,23.72
2018-10-18T14:55:07.207Z,23.60
2018-10-18T14:57:35.921Z,23.31
2018-10-18T15:00:04.838Z,22.93
2018-10-18T15:02:33.494Z,22.47
2018-10-18T15:05:02.268Z,22.14
2018-10-18T15:07:31.710Z,21.80
2018-10-18T15:10:00.247Z,21.58
2018-10-18T15:12:28.934Z,21.34
2018-10-18T15:14:57.538Z,21.13
2018-10-18T15:17:27.216Z,20.93
2018-10-18T15:19:56.821Z,20.70
2018-10-18T15:22:25.809Z,20.49
2018-10-18T15:24:55.962Z,20.22
2018-10-18T15:27:24.820Z,20.04
2018-10-18T15:29:53.434Z,19.80
2018-10-18T15:32:22.088Z,19.58
2018-10-18T15:34:50.943Z,19.33
2018-10-18T15:37:19.854Z,19.09
2018-10-18T15:39:48.400Z,18.92
2018-10-18T15:42:17.013Z,18.68
2018-10-18T15:44:45.849Z,18.45
2018-10-18T15:47:14.953Z,18.26
2018-10-18T15:49:43.526Z,18.06
2018-10-18T15:52:12.182Z,17.87
2018-10-18T15:54:41.782Z,17.71
2018-10-18T15:57:10.429Z,17.58
2018-10-18T15:59:39.178Z,17.44
2018-10-18T16:02:07.800Z,17.32
2018-10-18T16:04:36.472Z,17.20
2018-10-18T16:07:05.299Z,17.08
2018-10-18T16:09:33.831Z,16.93
2018-10-18T16:12:02.563Z,16.81
2018-10-18T16:14:31.105Z,16.69
2018-10-18T16:16:59.974Z,16.60
2018-10-18T16:19:28.656Z,16.53
2018-10-18T16:21:57.292Z,16.47
2018-10-18T16:24:26.114Z,16.43
2018-10-18T16:26:54.577Z,16.35
2018-10-18T16:29:23.262Z,16.29
2018-10-18T16:31:51.878Z,16.22
2018-10-18T16:34:20.721Z,16.16
2018-10-18T16:36:50.388Z,16.10
2018-10-18T16:39:19.177Z,16.00
2018-10-18T16:41:47.916Z,15.87
2018-10-18T16:44:16.717Z,15.69
2018-10-18T16:46:45.186Z,15.56
2018-10-18T16:49:14.545Z,15.47
2018-10-18T16:51:43.118Z,15.37
2018-10-18T16:54:12.020Z,15.33
2018-10-18T16:56:40.494Z,15.29
2018-10-18T16:59:09.241Z,15.23
2018-10-18T17:01:38.111Z,15.09
2018-10-18T17:04:07.201Z,14.94
2018-10-18T17:06:35.778Z,14.84
2018-10-18T17:09:06.247Z,14.67
2018-10-18T17:11:35.161Z,14.42
2018-10-18T17:14:03.901Z,14.16
2018-10-18T17:16:32.862Z,13.98
2018-10-18T17:19:01.624Z,13.85
2018-10-18T17:21:30.195Z,13.76
2018-10-18T17:23:59.015Z,13.73
2018-10-18T17:26:27.748Z,13.66
2018-10-18T17:28:56.475Z,13.61
2018-10-18T17:31:25.006Z,13.55
2018-10-18T17:33:54.811Z,13.50
2018-10-18T17:36:23.721Z,13.47
2018-10-18T17:38:52.483Z,13.42
2018-10-18T17:41:21.157Z,13.42
2018-10-18T17:43:49.747Z,13.45
2018-10-18T17:46:18.456Z,13.41
2018-10-18T17:48:46.997Z,13.36
2018-10-18T17:51:15.707Z,13.26
2018-10-18T17:53:45.556Z,13.23
2018-10-18T17:56:14.488Z,13.15
2018-10-18T17:58:43.058Z,13.09
2018-10-18T18:01:11.966Z,13.02
2018-10-18T18:03:40.643Z,12.90
2018-10-18T18:06:09.570Z,12.77
2018-10-18T18:08:38.390Z,12.70
2018-10-18T18:11:06.955Z,12.60
2018-10-18T18:13:35.690Z,12.46
2018-10-18T18:16:04.561Z,12.36
2018-10-18T18:18:33.533Z,12.25
2018-10-18T18:21:02.361Z,12.20
2018-10-18T18:23:31.005Z,12.21
2018-10-18T18:26:00.815Z,12.17
2018-10-18T18:28:29.406Z,12.12
2018-10-18T18:30:58.204Z,12.07
2018-10-18T18:33:26.947Z,12.01
2018-10-18T18:35:55.590Z,12.01
2018-10-18T18:38:24.331Z,11.99
2018-10-18T18:40:52.996Z,11.89
2018-10-18T18:43:21.732Z,11.79
2018-10-18T18:45:50.500Z,11.63
2018-10-18T18:48:19.050Z,11.45
2018-10-18T18:50:48.576Z,11.39
2018-10-18T18:53:17.444Z,11.28
2018-10-18T18:55:46.179Z,11.19
2018-10-18T18:58:14.876Z,11.11
2018-10-18T19:00:45.525Z,11.05
2018-10-18T19:03:15.425Z,11.01
2018-10-18T19:05:44.485Z,10.99
2018-10-18T19:08:14.912Z,11.00
2018-10-18T19:10:43.468Z,11.00
2018-10-18T19:13:12.290Z,10.99
2018-10-18T19:15:41.159Z,11.06
2018-10-18T19:18:09.779Z,10.99
2018-10-18T19:20:38.350Z,10.91
2018-10-18T19:23:06.935Z,10.81
2018-10-18T19:25:35.680Z,10.81
2018-10-18T19:28:05.273Z,10.91
2018-10-18T19:30:33.886Z,10.84
2018-10-18T19:33:02.571Z,10.82
2018-10-18T19:35:31.201Z,10.74
2018-10-18T19:38:00.053Z,10.65
2018-10-18T19:40:29.210Z,10.59
2018-10-18T19:42:58.055Z,10.52
2018-10-18T19:45:27.002Z,10.43
2018-10-18T19:47:55.841Z,10.35
2018-10-18T19:50:24.626Z,10.34
2018-10-18T19:52:53.184Z,10.29
2018-10-18T19:55:21.733Z,10.21
2018-10-18T19:57:50.822Z,10.23
2018-10-18T20:00:19.711Z,10.29
2018-10-18T20:02:48.463Z,10.32
2018-10-18T20:05:17.060Z,10.32
2018-10-18T20:07:45.640Z,10.21
2018-10-18T20:10:14.442Z,10.19
2018-10-18T20:12:43.154Z,10.17
2018-10-18T20:15:14.023Z,10.17
2018-10-18T20:17:42.799Z,10.22
2018-10-18T20:20:11.549Z,10.22
2018-10-18T20:22:40.323Z,10.15
2018-10-18T20:25:09.779Z,10.03
2018-10-18T20:27:38.673Z,10.01
2018-10-18T20:30:11.131Z,9.97
2018-10-18T20:32:41.064Z,9.91
2018-10-18T20:35:10.430Z,9.80
2018-10-18T20:37:39.767Z,9.80
2018-10-18T20:40:10.683Z,9.82
2018-10-18T20:42:39.794Z,9.82
2018-10-18T20:45:09.318Z,9.75
2018-10-18T20:47:38.924Z,9.74
2018-10-18T20:50:07.566Z,9.76
2018-10-18T20:52:36.329Z,9.71
2018-10-18T20:55:06.191Z,9.64
2018-10-18T20:57:35.126Z,9.60
2018-10-18T21:00:03.890Z,9.45
2018-10-18T21:02:32.463Z,9.31
2018-10-18T21:05:01.155Z,9.27
2018-10-18T21:07:30.113Z,9.22
2018-10-18T21:09:59.190Z,9.19
2018-10-18T21:12:27.746Z,9.15
2018-10-18T21:14:56.343Z,9.13
2018-10-18T21:17:24.942Z,9.10
2018-10-18T21:19:53.771Z,9.07
2018-10-18T21:22:22.647Z,9.04
2018-10-18T21:24:51.427Z,9.06
2018-10-18T21:27:20.083Z,9.07
2018-10-18T21:29:48.681Z,9.09
2018-10-18T21:32:17.422Z,9.09
2018-10-18T21:34:46.380Z,9.04
2018-10-18T21:37:15.468Z,9.00
2018-10-18T21:39:44.237Z,8.98
2018-10-18T21:42:13.283Z,9.02
2018-10-18T21:44:42.103Z,8.96
2018-10-18T21:47:12.289Z,8.89
2018-10-18T21:49:40.748Z,8.85
2018-10-18T21:52:09.332Z,8.93
2018-10-18T21:54:39.027Z,8.99
2018-10-18T21:57:07.973Z,9.01
2018-10-18T21:59:36.626Z,9.07
2018-10-18T22:02:05.618Z,9.14
2018-10-18T22:04:34.686Z,9.23
2018-10-18T22:07:03.433Z,9.28
2018-10-18T22:09:32.110Z,9.32
2018-10-18T22:12:00.843Z,9.41
2018-10-18T22:14:29.381Z,9.43
2018-10-18T22:16:58.208Z,9.43
2018-10-18T22:19:27.411Z,9.54
2018-10-18T22:21:56.021Z,9.55
2018-10-18T22:24:24.594Z,9.54
2018-10-18T22:26:53.171Z,9.40
2018-10-18T22:29:21.740Z,9.29
2018-10-18T22:31:50.298Z,9.25
2018-10-18T22:34:18.935Z,9.15
2018-10-18T22:36:47.482Z,9.20
2018-10-18T22:39:16.746Z,9.29
2018-10-18T22:41:45.296Z,9.31
2018-10-18T22:44:14.147Z,9.30
2018-10-18T22:46:42.785Z,9.21
2018-10-18T22:49:11.634Z,9.09
2018-10-18T22:51:41.221Z,9.07
2018-10-18T22:54:09.725Z,8.93
2018-10-18T22:56:38.797Z,8.83
2018-10-18T22:59:07.393Z,8.82
2018-10-18T23:01:35.941Z,8.72
2018-10-18T23:04:04.604Z,8.71
2018-10-18T23:06:33.159Z,8.77
2018-10-18T23:09:01.880Z,8.81
2018-10-18T23:11:30.496Z,8.82
2018-10-18T23:13:59.185Z,8.83
2018-10-18T23:16:27.847Z,8.90
2018-10-18T23:18:56.467Z,8.98
2018-10-18T23:21:25.258Z,9.09
2018-10-18T23:23:54.034Z,9.17
2018-10-18T23:26:24.058Z,9.35
2018-10-18T23:28:52.646Z,9.59
2018-10-18T23:31:21.189Z,9.76
2018-10-18T23:33:49.828Z,9.94
2018-10-18T23:36:19.034Z,10.04
2018-10-18T23:38:47.583Z,10.25
2018-10-18T23:41:16.231Z,10.35
2018-10-18T23:43:45.651Z,10.42
2018-10-18T23:46:14.401Z,10.51
2018-10-18T23:48:42.913Z,10.55
2018-10-18T23:51:11.642Z,10.58
2018-10-18T23:53:40.370Z,10.59
2018-10-18T23:56:09.739Z,10.58
2018-10-18T23:58:39.285Z,10.53
